Time;durP1;ratioP1;P1;durP2;ratioP2;P2;SDS_P1;SDS_P2;PMS_P1;PMS_P2;Temp;Humidity;BMP_temperature;BMP_pressure;BME280_temperature;BME280_humidity;BME280_pressure;Samples;Min_cycle;Max_cycle;Signal;HPM_P1;HPM_P2
2021/12/03 00:00:44;;;;;;;11.68;0.93;;;;;;;;;;5010014;28;20412;-69
2021/12/03 00:03:11;;;;;;;2.97;0.80;;;;;;;;;;5010319;28;20385;-69
2021/12/03 00:05:37;;;;;;;3.38;0.60;;;;;;;;;;5010304;28;20081;-70
2021/12/03 00:08:04;;;;;;;3.78;0.60;;;;;;;;;;5010625;28;20104;-69
2021/12/03 00:10:30;;;;;;;2.13;0.60;;;;;;;;;;5009633;28;20046;-70
2021/12/03 00:12:57;;;;;;;3.78;0.95;;;;;;;;;;5010064;28;20057;-69
2021/12/03 00:15:25;;;;;;;3.42;0.80;;;;;;;;;;5010428;28;20141;-69
2021/12/03 00:17:51;;;;;;;8.07;1.08;;;;;;;;;;5009990;28;20404;-69
2021/12/03 00:20:18;;;;;;;4.85;0.50;;;;;;;;;;4992160;28;20041;-71
2021/12/03 00:22:45;;;;;;;2.05;0.47;;;;;;;;;;5010344;28;20096;-70
2021/12/03 00:25:11;;;;;;;3.55;0.73;;;;;;;;;;5010392;28;20454;-70
2021/12/03 00:27:37;;;;;;;3.40;1.20;;;;;;;;;;5009476;28;20042;-70
2021/12/03 00:30:04;;;;;;;3.92;0.60;;;;;;;;;;5009914;28;20038;-70
2021/12/03 00:32:30;;;;;;;1.48;0.47;;;;;;;;;;5010035;28;20072;-70
2021/12/03 00:34:57;;;;;;;1.17;0.65;;;;;;;;;;5009750;28;20057;-70
2021/12/03 00:37:23;;;;;;;1.40;0.47;;;;;;;;;;5009476;28;20042;-69
2021/12/03 00:39:49;;;;;;;1.38;0.40;;;;;;;;;;5010045;28;20486;-69
2021/12/03 00:42:17;;;;;;;2.30;0.70;;;;;;;;;;5009912;28;20045;-69
2021/12/03 00:44:45;;;;;;;1.15;0.50;;;;;;;;;;5009991;28;20085;-69
2021/12/03 00:47:11;;;;;;;1.52;0.47;;;;;;;;;;4991395;28;20042;-69
2021/12/03 00:49:39;;;;;;;0.98;0.52;;;;;;;;;;5009366;28;20611;-69
2021/12/03 00:52:06;;;;;;;2.10;0.63;;;;;;;;;;5009798;28;20125;-68
2021/12/03 00:54:32;;;;;;;3.58;0.65;;;;;;;;;;5009466;28;20053;-69
2021/12/03 00:56:58;;;;;;;5.18;1.00;;;;;;;;;;5009276;28;20446;-69
2021/12/03 00:59:24;;;;;;;3.05;0.98;;;;;;;;;;5009328;28;20050;-70
2021/12/03 01:01:50;;;;;;;6.05;0.60;;;;;;;;;;5009791;28;20042;-69
2021/12/03 01:04:16;;;;;;;3.55;0.60;;;;;;;;;;5008965;28;20095;-69
2021/12/03 01:06:42;;;;;;;1.40;0.38;;;;;;;;;;5009699;28;20046;-69
2021/12/03 01:09:08;;;;;;;1.30;0.43;;;;;;;;;;5009217;28;20052;-69
2021/12/03 01:11:34;;;;;;;1.73;0.60;;;;;;;;;;5009067;28;20400;-70
2021/12/03 01:14:01;;;;;;;1.88;0.55;;;;;;;;;;5009545;28;20050;-70
2021/12/03 01:16:28;;;;;;;4.10;0.70;;;;;;;;;;4991974;28;20052;-70
2021/12/03 01:18:54;;;;;;;2.25;0.50;;;;;;;;;;5008980;28;20046;-70
2021/12/03 01:21:20;;;;;;;2.70;0.52;;;;;;;;;;5009140;28;20092;-69
2021/12/03 01:23:47;;;;;;;2.50;0.68;;;;;;;;;;5009508;28;20312;-71
2021/12/03 01:26:13;;;;;;;5.78;0.70;;;;;;;;;;5009225;28;20042;-71
2021/12/03 01:28:39;;;;;;;7.72;0.68;;;;;;;;;;5009590;28;20465;-71
2021/12/03 01:31:05;;;;;;;2.15;0.40;;;;;;;;;;5009624;28;20045;-70
2021/12/03 01:33:31;;;;;;;7.60;0.85;;;;;;;;;;5008681;28;20128;-70
2021/12/03 01:35:58;;;;;;;1.50;0.30;;;;;;;;;;5009572;28;20487;-69
2021/12/03 01:38:24;;;;;;;4.15;0.38;;;;;;;;;;5009345;28;20164;-69
2021/12/03 01:40:50;;;;;;;2.85;0.60;;;;;;;;;;5009313;28;20575;-70
2021/12/03 01:43:22;;;;;;;2.30;0.55;;;;;;;;;;5009073;28;20046;-69
2021/12/03 01:45:48;;;;;;;1.27;0.50;;;;;;;;;;5008778;28;20050;-69
2021/12/03 01:48:15;;;;;;;2.97;0.65;;;;;;;;;;5009235;28;20042;-69
2021/12/03 01:50:42;;;;;;;1.40;0.43;;;;;;;;;;5009425;28;20462;-70
2021/12/03 01:53:10;;;;;;;1.58;0.47;;;;;;;;;;5008732;28;20100;-69
2021/12/03 01:55:37;;;;;;;3.35;0.60;;;;;;;;;;4991451;28;20046;-70
2021/12/03 01:58:03;;;;;;;4.25;1.35;;;;;;;;;;5009112;28;20054;-69
2021/12/03 02:00:32;;;;;;;2.13;0.77;;;;;;;;;;5011620;28;20042;-69
2021/12/03 02:02:58;;;;;;;1.33;0.40;;;;;;;;;;5012448;28;20046;-70
2021/12/03 02:05:24;;;;;;;3.15;0.55;;;;;;;;;;5012162;28;20411;-69
2021/12/03 02:07:51;;;;;;;4.40;0.73;;;;;;;;;;5012805;28;20492;-69
2021/12/03 02:10:18;;;;;;;2.90;0.40;;;;;;;;;;5012391;28;20539;-69
2021/12/03 02:12:44;;;;;;;3.30;0.70;;;;;;;;;;5012456;28;20092;-70
2021/12/03 02:15:10;;;;;;;1.73;0.50;;;;;;;;;;5012509;28;20080;-69
2021/12/03 02:17:36;;;;;;;1.85;0.45;;;;;;;;;;5011560;28;20447;-70
2021/12/03 02:20:03;;;;;;;2.50;0.70;;;;;;;;;;5012403;28;20456;-69
2021/12/03 02:22:31;;;;;;;1.58;0.60;;;;;;;;;;5012190;28;20046;-69
2021/12/03 02:24:57;;;;;;;1.70;0.50;;;;;;;;;;5012283;28;20053;-69
2021/12/03 02:27:23;;;;;;;2.55;0.60;;;;;;;;;;5012179;28;20089;-69
2021/12/03 02:29:49;;;;;;;5.82;0.82;;;;;;;;;;5012305;28;20041;-69
2021/12/03 02:32:15;;;;;;;2.55;0.80;;;;;;;;;;5011885;28;20681;-69
2021/12/03 02:34:41;;;;;;;2.17;0.60;;;;;;;;;;5011731;28;20412;-70
2021/12/03 02:37:07;;;;;;;0.70;0.35;;;;;;;;;;5012233;28;20487;-70
2021/12/03 02:39:33;;;;;;;1.20;0.40;;;;;;;;;;5011879;28;20452;-69
2021/12/03 02:42:00;;;;;;;3.08;0.50;;;;;;;;;;5011615;28;20042;-70
2021/12/03 02:44:26;;;;;;;1.38;0.30;;;;;;;;;;5011918;28;20068;-69
2021/12/03 02:46:52;;;;;;;4.60;0.50;;;;;;;;;;5011937;28;20038;-70
2021/12/03 02:49:18;;;;;;;2.03;0.63;;;;;;;;;;5011523;28;20042;-69
2021/12/03 02:51:44;;;;;;;1.40;0.45;;;;;;;;;;5011469;28;20049;-69
2021/12/03 02:54:11;;;;;;;0.93;0.40;;;;;;;;;;5011797;28;20050;-70
2021/12/03 02:56:37;;;;;;;1.65;0.50;;;;;;;;;;5011500;28;20061;-69
2021/12/03 02:59:03;;;;;;;1.17;0.43;;;;;;;;;;5011888;28;20087;-70
2021/12/03 03:01:29;;;;;;;2.85;0.50;;;;;;;;;;5011619;28;20103;-69
2021/12/03 03:03:55;;;;;;;1.15;0.40;;;;;;;;;;4993880;28;20100;-69
2021/12/03 03:06:21;;;;;;;8.00;0.85;;;;;;;;;;5011295;28;20381;-69
2021/12/03 03:08:48;;;;;;;2.08;0.70;;;;;;;;;;5011604;28;20050;-69
2021/12/03 03:11:16;;;;;;;1.88;0.50;;;;;;;;;;5010884;28;20054;-70
2021/12/03 03:13:43;;;;;;;4.35;0.55;;;;;;;;;;5011525;28;20129;-69
2021/12/03 03:16:09;;;;;;;0.75;0.30;;;;;;;;;;5011217;28;20050;-70
2021/12/03 03:18:35;;;;;;;3.85;0.50;;;;;;;;;;5011181;28;20056;-69
2021/12/03 03:21:02;;;;;;;0.93;0.40;;;;;;;;;;5011298;28;20077;-69
2021/12/03 03:23:28;;;;;;;2.15;0.47;;;;;;;;;;5011294;28;20053;-69
2021/12/03 03:25:54;;;;;;;2.28;0.50;;;;;;;;;;5011237;28;20051;-69
2021/12/03 03:28:20;;;;;;;5.45;0.63;;;;;;;;;;5010568;28;20065;-69
2021/12/03 03:30:48;;;;;;;2.30;0.30;;;;;;;;;;5011270;28;20053;-69
2021/12/03 03:33:14;;;;;;;0.77;0.40;;;;;;;;;;5011221;28;20054;-69
2021/12/03 03:35:40;;;;;;;0.60;0.40;;;;;;;;;;5010684;28;20046;-68
2021/12/03 03:38:07;;;;;;;3.38;0.70;;;;;;;;;;5010806;28;20053;-69
2021/12/03 03:40:33;;;;;;;0.73;0.20;;;;;;;;;;5010506;28;20057;-69
2021/12/03 03:43:01;;;;;;;1.90;0.57;;;;;;;;;;5010983;28;20050;-70
2021/12/03 03:45:28;;;;;;;0.82;0.32;;;;;;;;;;5010219;28;20049;-69
2021/12/03 03:47:54;;;;;;;3.45;0.70;;;;;;;;;;5010853;28;20037;-70
2021/12/03 03:50:21;;;;;;;2.92;0.50;;;;;;;;;;5010768;28;20550;-70
2021/12/03 03:52:48;;;;;;;5.15;0.77;;;;;;;;;;5010892;28;20084;-70
2021/12/03 03:55:16;;;;;;;5.22;0.82;;;;;;;;;;5010589;28;20096;-69
2021/12/03 03:57:42;;;;;;;4.40;0.70;;;;;;;;;;5010081;28;20046;-70
2021/12/03 04:00:09;;;;;;;7.50;0.82;;;;;;;;;;5010717;28;20096;-69
2021/12/03 04:02:36;;;;;;;2.38;0.60;;;;;;;;;;5010330;28;20475;-70
2021/12/03 04:05:02;;;;;;;3.20;0.77;;;;;;;;;;5010334;28;20050;-70
2021/12/03 04:07:28;;;;;;;2.05;0.60;;;;;;;;;;5010454;28;20084;-69
2021/12/03 04:09:54;;;;;;;5.32;0.70;;;;;;;;;;5010415;28;20053;-69
2021/12/03 04:12:20;;;;;;;7.85;0.88;;;;;;;;;;5009729;28;20065;-69
2021/12/03 04:14:46;;;;;;;3.15;0.75;;;;;;;;;;4992652;28;20050;-70
2021/12/03 04:17:12;;;;;;;2.10;0.80;;;;;;;;;;5010326;28;20177;-70
2021/12/03 04:19:38;;;;;;;2.60;1.27;;;;;;;;;;5009817;28;20042;-69
2021/12/03 04:22:05;;;;;;;3.45;0.55;;;;;;;;;;5009862;28;20049;-69
2021/12/03 04:24:31;;;;;;;2.63;0.75;;;;;;;;;;5010212;28;20049;-69
2021/12/03 04:26:57;;;;;;;6.03;0.70;;;;;;;;;;4992486;28;20049;-70
2021/12/03 04:29:23;;;;;;;5.35;0.85;;;;;;;;;;5010017;28;20300;-68
2021/12/03 04:31:50;;;;;;;2.58;0.57;;;;;;;;;;5010120;28;20061;-69
2021/12/03 04:34:16;;;;;;;1.55;0.60;;;;;;;;;;5009441;28;20042;-69
2021/12/03 04:36:42;;;;;;;3.85;0.73;;;;;;;;;;5010070;28;20042;-68
2021/12/03 04:39:08;;;;;;;1.98;0.80;;;;;;;;;;5009805;28;20046;-69
2021/12/03 04:41:34;;;;;;;1.20;0.52;;;;;;;;;;5009460;28;20147;-70
2021/12/03 04:44:00;;;;;;;1.00;0.50;;;;;;;;;;4992477;28;20439;-69
2021/12/03 04:46:26;;;;;;;5.68;0.95;;;;;;;;;;5009660;28;20522;-69
2021/12/03 04:48:52;;;;;;;3.72;0.95;;;;;;;;;;5009645;28;20187;-70
2021/12/03 04:51:18;;;;;;;0.85;0.47;;;;;;;;;;5009753;28;20132;-70
2021/12/03 04:53:44;;;;;;;2.50;0.60;;;;;;;;;;5010047;28;20173;-69
2021/12/03 04:56:10;;;;;;;1.85;0.60;;;;;;;;;;5009494;28;20507;-69
2021/12/03 04:58:37;;;;;;;3.72;0.88;;;;;;;;;;5009643;28;20052;-70
2021/12/03 05:01:03;;;;;;;2.30;0.70;;;;;;;;;;5009305;28;20515;-70
2021/12/03 05:03:29;;;;;;;2.47;0.52;;;;;;;;;;5009501;28;20145;-69
2021/12/03 05:05:58;;;;;;;2.70;0.75;;;;;;;;;;5009140;28;20049;-70
2021/12/03 05:08:25;;;;;;;3.13;0.65;;;;;;;;;;5009117;28;20056;-69
2021/12/03 05:10:53;;;;;;;0.85;0.50;;;;;;;;;;5009796;28;20046;-69
2021/12/03 05:13:20;;;;;;;2.42;0.73;;;;;;;;;;5009363;28;20470;-69
2021/12/03 05:15:46;;;;;;;1.75;0.57;;;;;;;;;;5009612;28;20149;-69
2021/12/03 05:18:14;;;;;;;1.40;0.57;;;;;;;;;;5008916;28;20783;-68
2021/12/03 05:20:40;;;;;;;1.48;0.60;;;;;;;;;;5009130;28;20054;-70
2021/12/03 05:23:07;;;;;;;0.75;0.40;;;;;;;;;;5009511;28;20064;-69
2021/12/03 05:25:33;;;;;;;1.88;0.65;;;;;;;;;;5009197;28;20077;-70
2021/12/03 05:27:59;;;;;;;2.97;0.60;;;;;;;;;;5009123;28;20100;-69
2021/12/03 05:30:26;;;;;;;3.33;0.93;;;;;;;;;;5008933;28;20085;-69
2021/12/03 05:32:52;;;;;;;1.73;0.55;;;;;;;;;;5008697;28;20046;-70
2021/12/03 05:35:19;;;;;;;2.28;0.70;;;;;;;;;;5011167;28;20157;-70
2021/12/03 05:37:45;;;;;;;3.00;0.70;;;;;;;;;;4995099;28;20069;-69
2021/12/03 05:40:11;;;;;;;1.88;0.68;;;;;;;;;;5011958;28;20053;-70
2021/12/03 05:42:38;;;;;;;2.50;0.65;;;;;;;;;;5012433;28;20041;-70
2021/12/03 05:45:05;;;;;;;7.00;1.33;;;;;;;;;;5012731;28;20085;-69
2021/12/03 05:47:31;;;;;;;4.88;0.90;;;;;;;;;;5012577;28;20464;-67
2021/12/03 05:49:57;;;;;;;3.38;0.93;;;;;;;;;;5012386;28;20047;-71
2021/12/03 05:52:24;;;;;;;9.25;0.70;;;;;;;;;;5011840;28;20103;-71
2021/12/03 05:54:50;;;;;;;3.50;1.05;;;;;;;;;;5012447;28;20046;-70
2021/12/03 05:57:16;;;;;;;2.30;0.90;;;;;;;;;;5011979;28;20077;-70
2021/12/03 05:59:42;;;;;;;2.60;0.80;;;;;;;;;;5012242;28;20042;-70
2021/12/03 06:02:08;;;;;;;4.05;0.90;;;;;;;;;;5012207;28;20513;-70
2021/12/03 06:04:34;;;;;;;5.95;1.17;;;;;;;;;;5012042;28;20089;-70
2021/12/03 06:07:00;;;;;;;4.25;0.70;;;;;;;;;;5012070;28;20400;-72
2021/12/03 06:09:26;;;;;;;5.18;0.90;;;;;;;;;;5011473;28;20085;-71
2021/12/03 06:11:52;;;;;;;3.90;0.65;;;;;;;;;;5011865;28;20058;-71
2021/12/03 06:14:18;;;;;;;2.78;0.80;;;;;;;;;;5011814;28;20101;-70
2021/12/03 06:16:45;;;;;;;2.17;0.70;;;;;;;;;;5012682;28;20050;-70
2021/12/03 06:19:11;;;;;;;2.97;0.77;;;;;;;;;;5012002;28;20056;-70
2021/12/03 06:21:37;;;;;;;2.92;0.65;;;;;;;;;;5012567;28;20081;-70
2021/12/03 06:24:03;;;;;;;5.38;1.00;;;;;;;;;;5012216;28;20045;-70
2021/12/03 06:26:29;;;;;;;1.85;0.75;;;;;;;;;;5012310;28;20080;-70
2021/12/03 06:28:55;;;;;;;2.50;0.80;;;;;;;;;;5004191;28;20038;-72
2021/12/03 06:31:21;;;;;;;2.20;0.80;;;;;;;;;;4991999;28;20542;-72
2021/12/03 06:33:47;;;;;;;3.67;0.80;;;;;;;;;;4993146;28;20085;-72
2021/12/03 06:36:13;;;;;;;2.53;0.70;;;;;;;;;;4992359;28;20093;-71
2021/12/03 06:38:39;;;;;;;2.45;0.63;;;;;;;;;;4991462;28;20248;-71
2021/12/03 06:41:06;;;;;;;2.55;1.00;;;;;;;;;;4992196;28;20049;-71
2021/12/03 06:43:32;;;;;;;2.35;0.75;;;;;;;;;;4991548;28;20042;-71
2021/12/03 06:45:58;;;;;;;2.25;0.82;;;;;;;;;;4991749;28;20082;-71
2021/12/03 06:48:25;;;;;;;2.47;0.90;;;;;;;;;;4992290;28;20543;-71
2021/12/03 06:50:52;;;;;;;2.47;0.70;;;;;;;;;;4992626;28;20046;-70
2021/12/03 06:53:22;;;;;;;1.52;0.50;;;;;;;;;;4975245;28;20081;-75
2021/12/03 06:55:51;;;;;;;2.17;0.90;;;;;;;;;;4958850;28;20054;-70
2021/12/03 06:58:17;;;;;;;9.10;0.98;;;;;;;;;;4991610;28;20047;-72
2021/12/03 07:00:44;;;;;;;2.85;1.02;;;;;;;;;;4992530;28;20271;-71
2021/12/03 07:03:10;;;;;;;5.95;1.27;;;;;;;;;;4992221;28;20042;-72
2021/12/03 07:05:36;;;;;;;11.90;1.00;;;;;;;;;;4991421;28;20089;-73
2021/12/03 07:08:02;;;;;;;6.30;0.90;;;;;;;;;;4974999;28;20065;-72
2021/12/03 07:10:28;;;;;;;3.47;1.13;;;;;;;;;;4991970;28;20046;-71
2021/12/03 07:12:54;;;;;;;2.67;0.90;;;;;;;;;;4991347;28;20512;-72
2021/12/03 07:15:21;;;;;;;2.83;0.85;;;;;;;;;;4991515;28;20365;-73
2021/12/03 07:17:50;;;;;;;4.78;1.17;;;;;;;;;;4991669;28;20061;-72
2021/12/03 07:20:16;;;;;;;3.35;0.98;;;;;;;;;;4958099;28;20057;-71
2021/12/03 07:22:42;;;;;;;3.55;0.80;;;;;;;;;;4958474;28;20042;-71
2021/12/03 07:25:09;;;;;;;2.15;0.75;;;;;;;;;;4991774;28;20054;-71
2021/12/03 07:27:35;;;;;;;2.42;0.80;;;;;;;;;;4991335;28;20443;-71
2021/12/03 07:30:01;;;;;;;2.90;1.10;;;;;;;;;;4991713;28;20053;-71
2021/12/03 07:32:29;;;;;;;3.20;0.85;;;;;;;;;;4991677;28;20093;-72
2021/12/03 07:34:56;;;;;;;3.85;1.10;;;;;;;;;;4991230;28;20058;-71
2021/12/03 07:37:22;;;;;;;3.28;0.80;;;;;;;;;;4991384;28;20054;-73
2021/12/03 07:39:48;;;;;;;3.53;1.08;;;;;;;;;;4990925;28;20054;-71
2021/12/03 07:42:14;;;;;;;2.67;0.70;;;;;;;;;;4991378;28;20090;-73
2021/12/03 07:44:40;;;;;;;4.78;1.05;;;;;;;;;;4991426;28;20420;-71
2021/12/03 07:47:06;;;;;;;4.57;0.93;;;;;;;;;;4991434;28;20046;-75
2021/12/03 07:49:32;;;;;;;2.42;0.90;;;;;;;;;;4991114;28;20050;-71
2021/12/03 07:51:58;;;;;;;3.72;0.90;;;;;;;;;;4973640;28;20056;-71
2021/12/03 07:54:25;;;;;;;3.15;0.80;;;;;;;;;;4990590;28;20487;-70
2021/12/03 07:56:51;;;;;;;1.65;0.60;;;;;;;;;;4990152;28;20551;-71
2021/12/03 07:59:17;;;;;;;3.28;1.20;;;;;;;;;;4991012;28;20058;-71
2021/12/03 08:01:47;;;;;;;3.78;0.85;;;;;;;;;;4991083;28;20042;-71
2021/12/03 08:04:13;;;;;;;2.60;0.85;;;;;;;;;;4990503;28;20053;-71
2021/12/03 08:06:40;;;;;;;2.75;0.75;;;;;;;;;;4990815;28;20038;-71
2021/12/03 08:09:10;;;;;;;4.75;0.90;;;;;;;;;;4990837;28;20104;-69
2021/12/03 08:11:37;;;;;;;2.92;0.68;;;;;;;;;;4990417;28;20137;-72
2021/12/03 08:14:03;;;;;;;1.55;0.55;;;;;;;;;;4990967;28;20492;-71
2021/12/03 08:16:29;;;;;;;1.80;0.73;;;;;;;;;;4990000;28;20081;-69
2021/12/03 08:18:56;;;;;;;1.98;0.70;;;;;;;;;;4973111;28;20046;-69
2021/12/03 08:21:22;;;;;;;2.63;0.57;;;;;;;;;;4985236;28;20416;-70
2021/12/03 08:23:48;;;;;;;2.78;0.98;;;;;;;;;;4986266;28;20050;-70
2021/12/03 08:26:15;;;;;;;2.28;0.88;;;;;;;;;;4990345;28;20050;-69
2021/12/03 08:28:41;;;;;;;2.15;0.50;;;;;;;;;;4981630;28;20039;-69
2021/12/03 08:31:11;;;;;;;3.25;0.88;;;;;;;;;;4989812;28;20042;-69
2021/12/03 08:33:37;;;;;;;2.45;0.80;;;;;;;;;;4990280;28;20070;-69
2021/12/03 08:36:03;;;;;;;1.85;0.75;;;;;;;;;;4990624;28;20073;-68
2021/12/03 08:38:29;;;;;;;3.53;0.88;;;;;;;;;;4990481;28;20140;-68
2021/12/03 08:40:55;;;;;;;2.92;0.73;;;;;;;;;;4990486;28;20393;-70
2021/12/03 08:43:22;;;;;;;1.75;0.70;;;;;;;;;;4970884;28;20089;-71
2021/12/03 08:45:53;;;;;;;2.40;0.75;;;;;;;;;;4979904;28;20077;-69
2021/12/03 08:48:19;;;;;;;1.90;0.70;;;;;;;;;;4983629;28;20039;-69
2021/12/03 08:50:53;;;;;;;1.38;0.80;;;;;;;;;;4989388;28;20104;-70
2021/12/03 08:56:04;;;;;;;3.05;0.93;;;;;;;;;;4990262;28;20050;-69
2021/12/03 08:58:30;;;;;;;1.73;0.80;;;;;;;;;;4989022;28;20050;-69
2021/12/03 09:00:56;;;;;;;2.53;0.70;;;;;;;;;;4989665;28;20104;-71
2021/12/03 09:03:22;;;;;;;1.90;0.70;;;;;;;;;;4972709;28;20062;-71
2021/12/03 09:05:48;;;;;;;1.40;0.60;;;;;;;;;;4989990;28;20129;-69
2021/12/03 09:08:14;;;;;;;3.38;1.00;;;;;;;;;;4971511;28;20051;-71
2021/12/03 09:10:41;;;;;;;2.03;0.80;;;;;;;;;;4970582;28;20055;-70
2021/12/03 09:13:07;;;;;;;2.95;0.75;;;;;;;;;;4970604;28;20054;-71
2021/12/03 09:18:39;;;;;;;2.55;0.80;;;;;;;;;;4910962;29;20063;-70
2021/12/03 09:21:09;;;;;;;2.92;1.05;;;;;;;;;;4959718;28;20055;-70
2021/12/03 09:24:12;;;;;;;2.60;0.80;;;;;;;;;;4970113;28;20382;-70
2021/12/03 09:26:28;;;;;;;2.97;0.90;;;;;;;;;;4967285;28;20054;-71
2021/12/03 09:29:10;;;;;;;5.88;1.15;;;;;;;;;;4980205;28;20069;-69
2021/12/03 09:31:37;;;;;;;3.70;1.38;;;;;;;;;;4986520;28;20441;-70
2021/12/03 09:34:09;;;;;;;2.88;0.90;;;;;;;;;;4988603;28;20051;-71
2021/12/03 09:36:37;;;;;;;2.80;0.90;;;;;;;;;;4991735;28;20427;-70
2021/12/03 09:39:05;;;;;;;1.25;0.65;;;;;;;;;;4968650;28;20528;-71
2021/12/03 09:41:31;;;;;;;3.67;0.88;;;;;;;;;;4989099;28;20050;-69
2021/12/03 09:43:57;;;;;;;3.30;1.20;;;;;;;;;;4975274;28;20996;-72
2021/12/03 09:46:25;;;;;;;5.75;1.00;;;;;;;;;;4986631;28;20054;-69
2021/12/03 09:51:39;;;;;;;3.33;0.90;;;;;;;;;;4981509;28;20046;-72
2021/12/03 09:56:42;;;;;;;2.72;1.10;;;;;;;;;;4977154;28;20042;-71
2021/12/03 10:01:55;;;;;;;3.88;0.90;;;;;;;;;;4985401;28;20043;-71
2021/12/03 10:15:38;;;;;;;3.15;1.05;;;;;;;;;;4966515;28;20423;-70
2021/12/03 10:34:29;;;;;;;2.67;1.02;;;;;;;;;;4963964;28;20493;-69
2021/12/03 10:40:16;;;;;;;2.42;0.88;;;;;;;;;;4982819;28;20054;-69
2021/12/03 10:48:17;;;;;;;2.40;0.80;;;;;;;;;;4923863;29;20536;-70
2021/12/03 10:50:58;;;;;;;9.70;1.08;;;;;;;;;;4958813;28;20130;-70
2021/12/03 10:53:47;;;;;;;6.53;1.20;;;;;;;;;;4984548;28;20053;-69
2021/12/03 10:56:45;;;;;;;3.53;1.10;;;;;;;;;;4981248;28;20054;-69
2021/12/03 11:07:58;;;;;;;5.95;0.98;;;;;;;;;;4981176;28;20047;-68
2021/12/03 11:16:38;;;;;;;19.63;1.63;;;;;;;;;;4982786;28;20053;-69
2021/12/03 11:29:56;;;;;;;2.63;0.93;;;;;;;;;;4981044;28;20038;-71
2021/12/03 11:35:49;;;;;;;3.28;1.17;;;;;;;;;;4982181;28;20058;-69
2021/12/03 13:00:29;;;;;;;5.18;0.88;;;;;;;;;;4978050;28;20423;-70
2021/12/03 13:16:56;;;;;;;6.63;1.30;;;;;;;;;;4982755;28;20417;-69
2021/12/03 13:27:37;;;;;;;7.80;1.45;;;;;;;;;;4980039;28;20490;-71
2021/12/03 14:10:34;;;;;;;3.33;0.90;;;;;;;;;;4987488;28;20050;-70
2021/12/03 14:43:05;;;;;;;3.25;1.10;;;;;;;;;;4983821;28;20050;-70
2021/12/03 14:48:35;;;;;;;3.83;1.10;;;;;;;;;;4983745;28;20136;-70
2021/12/03 14:53:53;;;;;;;3.45;1.20;;;;;;;;;;4982044;28;20051;-70
2021/12/03 14:56:23;;;;;;;2.72;1.05;;;;;;;;;;4983597;28;20535;-71
2021/12/03 14:59:12;;;;;;;3.08;0.90;;;;;;;;;;4985400;28;20065;-71
2021/12/03 15:01:48;;;;;;;4.43;1.58;;;;;;;;;;4986397;28;20081;-72
2021/12/03 15:07:14;;;;;;;3.53;1.05;;;;;;;;;;4981643;28;20052;-72
2021/12/03 15:09:46;;;;;;;5.07;1.00;;;;;;;;;;4984293;28;20042;-72
2021/12/03 15:25:27;;;;;;;2.90;0.93;;;;;;;;;;4983799;28;20412;-71
2021/12/03 15:30:32;;;;;;;1.67;0.85;;;;;;;;;;4987168;28;20385;-72
2021/12/03 15:38:24;;;;;;;3.60;1.00;;;;;;;;;;4985635;28;20050;-72
2021/12/03 15:52:06;;;;;;;2.67;1.17;;;;;;;;;;4982100;28;20042;-70
2021/12/03 16:10:30;;;;;;;35.83;8.77;;;;;;;;;;4983055;28;20104;-74
2021/12/03 16:24:07;;;;;;;72.40;17.58;;;;;;;;;;4980039;28;20050;-70
2021/12/03 16:46:06;;;;;;;74.88;20.60;;;;;;;;;;4990154;28;20096;-71
2021/12/03 16:49:27;;;;;;;77.60;21.13;;;;;;;;;;4990240;28;20084;-70
2021/12/03 16:54:09;;;;;;;71.00;20.30;;;;;;;;;;4982438;28;20064;-69
2021/12/03 16:56:36;;;;;;;74.53;19.10;;;;;;;;;;4984732;28;20054;-70
2021/12/03 16:59:03;;;;;;;61.72;19.85;;;;;;;;;;4983930;28;20046;-70
2021/12/03 17:01:45;;;;;;;67.38;19.55;;;;;;;;;;4981407;28;20100;-67
2021/12/03 17:56:48;;;;;;;41.50;13.68;;;;;;;;;;4976458;28;20575;-71
2021/12/03 17:59:19;;;;;;;29.77;11.20;;;;;;;;;;4978071;28;20137;-71
2021/12/03 18:05:28;;;;;;;35.67;12.60;;;;;;;;;;4972521;28;20054;-72
2021/12/03 18:07:25;;;;;;;32.30;10.05;;;;;;;;;;4959826;28;20074;-69
2021/12/03 18:10:25;;;;;;;34.10;9.95;;;;;;;;;;4972852;28;20046;-72
2021/12/03 18:19:10;;;;;;;29.92;10.60;;;;;;;;;;4972786;28;20054;-71
2021/12/03 18:46:12;;;;;;;19.42;8.32;;;;;;;;;;4972350;28;20109;-72
2021/12/03 18:49:03;;;;;;;24.60;7.47;;;;;;;;;;4954899;28;20113;-71
2021/12/03 18:51:40;;;;;;;20.38;6.70;;;;;;;;;;4974763;28;20046;-72
2021/12/03 18:54:30;;;;;;;25.17;7.97;;;;;;;;;;4997713;28;20050;-70
2021/12/03 18:57:02;;;;;;;20.25;6.85;;;;;;;;;;4982664;28;20440;-71
2021/12/03 18:59:28;;;;;;;23.00;7.70;;;;;;;;;;4991292;28;20143;-69
2021/12/03 19:01:55;;;;;;;19.20;6.90;;;;;;;;;;4991516;28;20104;-72
2021/12/03 19:04:33;;;;;;;17.40;6.10;;;;;;;;;;4990876;28;20053;-70
2021/12/03 19:07:05;;;;;;;20.13;7.15;;;;;;;;;;4991139;28;20061;-69
2021/12/03 19:09:41;;;;;;;19.58;5.90;;;;;;;;;;4991298;28;20140;-69
2021/12/03 19:12:15;;;;;;;19.58;6.22;;;;;;;;;;4990196;28;20054;-69
2021/12/03 19:14:50;;;;;;;17.38;5.82;;;;;;;;;;4991017;28;20054;-69
2021/12/03 19:17:17;;;;;;;17.17;6.18;;;;;;;;;;4990775;28;20050;-70
2021/12/03 19:19:45;;;;;;;16.77;5.22;;;;;;;;;;4991220;28;20491;-71
2021/12/03 19:22:12;;;;;;;18.70;6.20;;;;;;;;;;4990951;28;20054;-71
2021/12/03 19:24:38;;;;;;;14.15;5.70;;;;;;;;;;4990420;28;20050;-71
2021/12/03 19:27:04;;;;;;;16.67;5.50;;;;;;;;;;4973752;28;20405;-71
2021/12/03 19:29:32;;;;;;;15.50;5.70;;;;;;;;;;4989931;28;20080;-70
2021/12/03 19:31:58;;;;;;;14.32;4.95;;;;;;;;;;4990814;28;20441;-70
2021/12/03 19:34:24;;;;;;;15.05;5.00;;;;;;;;;;4990854;28;20046;-69
2021/12/03 19:36:51;;;;;;;13.93;4.85;;;;;;;;;;4989884;28;20042;-70
2021/12/03 19:39:18;;;;;;;15.38;5.80;;;;;;;;;;4990319;28;20053;-69
2021/12/03 19:42:10;;;;;;;14.90;4.75;;;;;;;;;;4990793;28;20050;-70
2021/12/03 19:44:45;;;;;;;13.20;4.85;;;;;;;;;;4990331;28;20074;-71
2021/12/03 19:47:12;;;;;;;12.45;3.88;;;;;;;;;;4990320;28;20401;-70
2021/12/03 19:52:22;;;;;;;9.73;4.03;;;;;;;;;;4989826;28;20460;-71
2021/12/03 19:54:48;;;;;;;11.05;4.07;;;;;;;;;;4990536;28;20050;-71
2021/12/03 19:57:14;;;;;;;10.60;4.15;;;;;;;;;;4980880;28;20050;-71
2021/12/03 19:59:40;;;;;;;9.57;3.67;;;;;;;;;;4989081;28;20077;-72
2021/12/03 20:02:06;;;;;;;11.38;3.70;;;;;;;;;;4989281;28;20050;-71
2021/12/03 20:04:32;;;;;;;8.50;3.42;;;;;;;;;;4989412;28;20181;-70
2021/12/03 20:07:01;;;;;;;8.18;3.58;;;;;;;;;;4972804;28;20046;-69
2021/12/03 20:09:35;;;;;;;14.63;4.37;;;;;;;;;;4990162;28;20054;-70
2021/12/03 20:12:05;;;;;;;11.00;4.68;;;;;;;;;;4989923;28;20054;-71
2021/12/03 20:14:32;;;;;;;9.95;4.07;;;;;;;;;;4972682;28;20058;-71
2021/12/03 20:17:18;;;;;;;9.52;3.60;;;;;;;;;;4989677;28;20132;-69
2021/12/03 20:19:51;;;;;;;9.13;3.40;;;;;;;;;;4989689;28;20129;-72
2021/12/03 20:27:39;;;;;;;8.70;2.95;;;;;;;;;;4990183;28;20050;-72
2021/12/03 20:30:13;;;;;;;7.53;3.15;;;;;;;;;;4989645;28;20410;-73
2021/12/03 20:32:40;;;;;;;10.10;3.10;;;;;;;;;;4989263;28;20046;-73
2021/12/03 20:35:37;;;;;;;9.77;2.90;;;;;;;;;;4989220;28;20538;-74
2021/12/03 20:38:03;;;;;;;8.23;3.28;;;;;;;;;;4989379;28;20100;-72
2021/12/03 20:40:32;;;;;;;7.30;2.88;;;;;;;;;;4989542;28;20100;-73
2021/12/03 21:09:52;;;;;;;8.88;3.45;;;;;;;;;;5009415;28;20058;-68
2021/12/03 21:15:10;;;;;;;7.63;2.92;;;;;;;;;;5009254;28;20058;-70
2021/12/03 21:23:02;;;;;;;6.13;2.47;;;;;;;;;;5009222;28;20069;-71
2021/12/03 21:25:34;;;;;;;6.70;2.75;;;;;;;;;;5009019;28;20053;-69
2021/12/03 21:31:05;;;;;;;5.15;2.20;;;;;;;;;;5009122;28;20053;-69
2021/12/03 21:41:22;;;;;;;7.18;2.42;;;;;;;;;;5008249;28;20057;-72
2021/12/03 21:43:48;;;;;;;7.10;2.58;;;;;;;;;;5009306;28;20046;-70
2021/12/03 21:46:17;;;;;;;5.38;2.10;;;;;;;;;;5008756;28;20069;-69
2021/12/03 21:48:43;;;;;;;6.47;2.20;;;;;;;;;;5007291;28;20046;-71
2021/12/03 21:51:09;;;;;;;8.82;2.35;;;;;;;;;;5008965;28;20446;-71
2021/12/03 21:53:35;;;;;;;12.65;2.42;;;;;;;;;;5009082;28;20049;-70
2021/12/03 21:56:01;;;;;;;14.73;2.70;;;;;;;;;;5009078;28;20056;-70
2021/12/03 21:58:27;;;;;;;9.20;2.50;;;;;;;;;;5008749;28;20594;-71
2021/12/03 22:00:53;;;;;;;9.52;2.60;;;;;;;;;;5008917;28;20133;-71
2021/12/03 22:03:19;;;;;;;12.52;2.70;;;;;;;;;;5008882;28;20042;-71
2021/12/03 22:05:46;;;;;;;7.35;2.45;;;;;;;;;;4991282;28;20111;-71
2021/12/03 22:08:12;;;;;;;8.77;2.72;;;;;;;;;;5009169;28;20054;-71
2021/12/03 22:10:38;;;;;;;12.85;2.85;;;;;;;;;;4991564;28;20345;-71
2021/12/03 22:13:04;;;;;;;14.68;2.53;;;;;;;;;;5008665;28;20064;-71
2021/12/03 22:15:31;;;;;;;11.27;2.30;;;;;;;;;;5008094;28;20133;-71
2021/12/03 22:17:57;;;;;;;10.18;2.80;;;;;;;;;;5012390;28;20399;-71
2021/12/03 22:20:23;;;;;;;5.35;1.83;;;;;;;;;;5012349;28;20061;-72
2021/12/03 22:22:49;;;;;;;5.95;2.10;;;;;;;;;;5012787;28;20053;-72
2021/12/03 22:25:15;;;;;;;9.38;2.20;;;;;;;;;;5012416;28;20049;-72
2021/12/03 22:27:41;;;;;;;6.88;2.30;;;;;;;;;;5012370;28;20045;-72
2021/12/03 22:30:07;;;;;;;7.60;2.05;;;;;;;;;;5012032;28;20053;-71
2021/12/03 22:32:34;;;;;;;5.32;2.13;;;;;;;;;;4994740;28;20050;-72
2021/12/03 22:35:00;;;;;;;8.18;2.30;;;;;;;;;;5012293;28;20046;-71
2021/12/03 22:37:26;;;;;;;9.60;2.17;;;;;;;;;;5012110;28;20053;-71
2021/12/03 22:39:52;;;;;;;9.10;2.30;;;;;;;;;;5012313;28;20057;-71
2021/12/03 22:42:18;;;;;;;5.93;2.45;;;;;;;;;;5011163;28;20046;-71
2021/12/03 22:44:45;;;;;;;3.80;1.77;;;;;;;;;;4994376;28;20049;-71
2021/12/03 22:52:20;;;;;;;5.50;2.28;;;;;;;;;;5011796;28;20050;-71
2021/12/03 22:54:46;;;;;;;6.50;2.40;;;;;;;;;;5011867;28;20373;-72